sensor_id;sensor_type;location;lat;lon;timestamp;P1;P2;P0
60245;PMS5003;46107;53.356;-1.524;2023-02-27T00:01:04;9;8;
60245;PMS5003;46107;53.356;-1.524;2023-02-27T00:03:32;11;9;
60245;PMS5003;46107;53.356;-1.524;2023-02-27T00:05:59;8;8;
60245;PMS5003;46107;53.356;-1.524;2023-02-27T00:08:27;11;8;
60245;PMS5003;46107;53.356;-1.524;2023-02-27T00:10:55;11;8;
60245;PMS5003;46107;53.356;-1.524;2023-02-27T00:13:22;11;8;
60245;PMS5003;46107;53.356;-1.524;2023-02-27T00:15:50;7;6;
60245;PMS5003;46107;53.356;-1.524;2023-02-27T00:18:17;10;9;
60245;PMS5003;46107;53.356;-1.524;2023-02-27T00:20:45;9;7;
60245;PMS5003;46107;53.356;-1.524;2023-02-27T00:23:13;7;7;
60245;PMS5003;46107;53.356;-1.524;2023-02-27T00:25:41;12;8;
60245;PMS5003;46107;53.356;-1.524;2023-02-27T00:28:08;8;8;
60245;PMS5003;46107;53.356;-1.524;2023-02-27T00:30:36;7;7;
60245;PMS5003;46107;53.356;-1.524;2023-02-27T00:33:04;6;5;
60245;PMS5003;46107;53.356;-1.524;2023-02-27T00:35:32;9;7;
60245;PMS5003;46107;53.356;-1.524;2023-02-27T00:38:00;10;8;
60245;PMS5003;46107;53.356;-1.524;2023-02-27T00:40:28;5;4;
60245;PMS5003;46107;53.356;-1.524;2023-02-27T00:42:55;7;7;
60245;PMS5003;46107;53.356;-1.524;2023-02-27T00:45:23;6;6;
60245;PMS5003;46107;53.356;-1.524;2023-02-27T00:47:51;9;8;
60245;PMS5003;46107;53.356;-1.524;2023-02-27T00:50:19;7;6;
60245;PMS5003;46107;53.356;-1.524;2023-02-27T00:52:47;11;10;
60245;PMS5003;46107;53.356;-1.524;2023-02-27T00:55:15;9;9;
60245;PMS5003;46107;53.356;-1.524;2023-02-27T00:57:42;10;10;
60245;PMS5003;46107;53.356;-1.524;2023-02-27T01:00:11;11;9;
60245;PMS5003;46107;53.356;-1.524;2023-02-27T01:02:39;7;7;
60245;PMS5003;46107;53.356;-1.524;2023-02-27T01:05:07;7;7;
60245;PMS5003;46107;53.356;-1.524;2023-02-27T01:07:36;9;8;
60245;PMS5003;46107;53.356;-1.524;2023-02-27T01:10:05;11;10;
60245;PMS5003;46107;53.356;-1.524;2023-02-27T01:12:33;14;12;
60245;PMS5003;46107;53.356;-1.524;2023-02-27T01:15:01;8;8;
60245;PMS5003;46107;53.356;-1.524;2023-02-27T01:17:30;12;11;
60245;PMS5003;46107;53.356;-1.524;2023-02-27T01:19:59;10;8;
60245;PMS5003;46107;53.356;-1.524;2023-02-27T01:22:26;7;7;
60245;PMS5003;46107;53.356;-1.524;2023-02-27T01:24:54;12;12;
60245;PMS5003;46107;53.356;-1.524;2023-02-27T01:27:21;8;7;
60245;PMS5003;46107;53.356;-1.524;2023-02-27T01:29:49;13;9;
60245;PMS5003;46107;53.356;-1.524;2023-02-27T01:32:17;11;9;
60245;PMS5003;46107;53.356;-1.524;2023-02-27T01:34:44;9;9;
60245;PMS5003;46107;53.356;-1.524;2023-02-27T01:37:12;9;9;
60245;PMS5003;46107;53.356;-1.524;2023-02-27T01:39:40;12;10;
60245;PMS5003;46107;53.356;-1.524;2023-02-27T01:42:10;7;7;
60245;PMS5003;46107;53.356;-1.524;2023-02-27T01:45:00;13;10;
60245;PMS5003;46107;53.356;-1.524;2023-02-27T01:47:51;9;7;
60245;PMS5003;46107;53.356;-1.524;2023-02-27T01:50:23;10;9;
60245;PMS5003;46107;53.356;-1.524;2023-02-27T01:52:53;10;10;
60245;PMS5003;46107;53.356;-1.524;2023-02-27T01:55:23;9;9;
60245;PMS5003;46107;53.356;-1.524;2023-02-27T01:57:53;10;9;
60245;PMS5003;46107;53.356;-1.524;2023-02-27T02:00:21;15;13;
60245;PMS5003;46107;53.356;-1.524;2023-02-27T02:02:52;12;12;
60245;PMS5003;46107;53.356;-1.524;2023-02-27T02:05:25;12;12;
60245;PMS5003;46107;53.356;-1.524;2023-02-27T02:07:54;13;12;
60245;PMS5003;46107;53.356;-1.524;2023-02-27T02:10:25;11;11;
60245;PMS5003;46107;53.356;-1.524;2023-02-27T02:12:55;13;12;
60245;PMS5003;46107;53.356;-1.524;2023-02-27T02:15:24;12;12;
60245;PMS5003;46107;53.356;-1.524;2023-02-27T02:18:08;13;11;
60245;PMS5003;46107;53.356;-1.524;2023-02-27T02:20:57;11;11;
60245;PMS5003;46107;53.356;-1.524;2023-02-27T02:23:46;10;8;
60245;PMS5003;46107;53.356;-1.524;2023-02-27T02:26:26;13;10;
60245;PMS5003;46107;53.356;-1.524;2023-02-27T02:29:33;10;10;
60245;PMS5003;46107;53.356;-1.524;2023-02-27T02:32:28;14;10;
60245;PMS5003;46107;53.356;-1.524;2023-02-27T02:35:22;11;11;
60245;PMS5003;46107;53.356;-1.524;2023-02-27T02:38:21;12;10;
60245;PMS5003;46107;53.356;-1.524;2023-02-27T02:41:02;9;9;
60245;PMS5003;46107;53.356;-1.524;2023-02-27T02:43:39;11;10;
60245;PMS5003;46107;53.356;-1.524;2023-02-27T02:46:14;9;9;
60245;PMS5003;46107;53.356;-1.524;2023-02-27T02:48:46;9;8;
60245;PMS5003;46107;53.356;-1.524;2023-02-27T02:51:21;10;10;
60245;PMS5003;46107;53.356;-1.524;2023-02-27T02:53:59;9;7;
60245;PMS5003;46107;53.356;-1.524;2023-02-27T02:56:34;9;9;
60245;PMS5003;46107;53.356;-1.524;2023-02-27T02:59:05;9;7;
60245;PMS5003;46107;53.356;-1.524;2023-02-27T03:01:40;8;8;
60245;PMS5003;46107;53.356;-1.524;2023-02-27T03:04:12;9;8;
60245;PMS5003;46107;53.356;-1.524;2023-02-27T03:06:44;11;9;
60245;PMS5003;46107;53.356;-1.524;2023-02-27T03:09:19;12;11;
60245;PMS5003;46107;53.356;-1.524;2023-02-27T03:11:52;14;10;
60245;PMS5003;46107;53.356;-1.524;2023-02-27T03:14:26;13;12;
60245;PMS5003;46107;53.356;-1.524;2023-02-27T03:17:04;10;9;
60245;PMS5003;46107;53.356;-1.524;2023-02-27T03:19:36;11;9;
60245;PMS5003;46107;53.356;-1.524;2023-02-27T03:22:11;10;9;
60245;PMS5003;46107;53.356;-1.524;2023-02-27T03:24:44;9;7;
60245;PMS5003;46107;53.356;-1.524;2023-02-27T03:27:15;8;8;
60245;PMS5003;46107;53.356;-1.524;2023-02-27T03:29:46;14;8;
60245;PMS5003;46107;53.356;-1.524;2023-02-27T03:32:20;9;9;
60245;PMS5003;46107;53.356;-1.524;2023-02-27T03:34:50;9;8;
60245;PMS5003;46107;53.356;-1.524;2023-02-27T03:37:21;8;8;
60245;PMS5003;46107;53.356;-1.524;2023-02-27T03:39:59;8;8;
60245;PMS5003;46107;53.356;-1.524;2023-02-27T03:42:36;8;7;
60245;PMS5003;46107;53.356;-1.524;2023-02-27T03:45:10;9;9;
60245;PMS5003;46107;53.356;-1.524;2023-02-27T03:47:44;12;9;
60245;PMS5003;46107;53.356;-1.524;2023-02-27T03:50:13;10;8;
60245;PMS5003;46107;53.356;-1.524;2023-02-27T03:52:41;7;7;
60245;PMS5003;46107;53.356;-1.524;2023-02-27T03:55:11;15;11;
60245;PMS5003;46107;53.356;-1.524;2023-02-27T03:57:42;10;9;
60245;PMS5003;46107;53.356;-1.524;2023-02-27T04:00:13;14;14;
60245;PMS5003;46107;53.356;-1.524;2023-02-27T04:02:44;8;8;
60245;PMS5003;46107;53.356;-1.524;2023-02-27T04:05:13;10;10;
60245;PMS5003;46107;53.356;-1.524;2023-02-27T04:07:42;12;10;
60245;PMS5003;46107;53.356;-1.524;2023-02-27T04:10:28;14;11;
60245;PMS5003;46107;53.356;-1.524;2023-02-27T04:13:42;12;12;
60245;PMS5003;46107;53.356;-1.524;2023-02-27T04:16:21;10;9;
60245;PMS5003;46107;53.356;-1.524;2023-02-27T04:19:09;10;10;
60245;PMS5003;46107;53.356;-1.524;2023-02-27T04:21:50;11;11;
60245;PMS5003;46107;53.356;-1.524;2023-02-27T04:24:33;11;11;
60245;PMS5003;46107;53.356;-1.524;2023-02-27T04:27:09;15;11;
60245;PMS5003;46107;53.356;-1.524;2023-02-27T04:29:48;17;16;
60245;PMS5003;46107;53.356;-1.524;2023-02-27T04:32:22;15;14;
60245;PMS5003;46107;53.356;-1.524;2023-02-27T04:34:57;17;17;
60245;PMS5003;46107;53.356;-1.524;2023-02-27T04:37:28;18;16;
60245;PMS5003;46107;53.356;-1.524;2023-02-27T04:40:02;16;15;
60245;PMS5003;46107;53.356;-1.524;2023-02-27T04:42:36;19;14;
60245;PMS5003;46107;53.356;-1.524;2023-02-27T04:45:10;16;15;
60245;PMS5003;46107;53.356;-1.524;2023-02-27T04:47:56;14;13;
60245;PMS5003;46107;53.356;-1.524;2023-02-27T04:50:29;16;16;
60245;PMS5003;46107;53.356;-1.524;2023-02-27T04:53:03;17;12;
60245;PMS5003;46107;53.356;-1.524;2023-02-27T04:55:37;13;11;
60245;PMS5003;46107;53.356;-1.524;2023-02-27T04:58:09;20;15;
60245;PMS5003;46107;53.356;-1.524;2023-02-27T05:00:40;16;12;
60245;PMS5003;46107;53.356;-1.524;2023-02-27T05:03:14;18;16;
60245;PMS5003;46107;53.356;-1.524;2023-02-27T05:05:45;18;15;
60245;PMS5003;46107;53.356;-1.524;2023-02-27T05:08:15;18;15;
60245;PMS5003;46107;53.356;-1.524;2023-02-27T05:10:49;17;17;
60245;PMS5003;46107;53.356;-1.524;2023-02-27T05:13:23;16;15;
60245;PMS5003;46107;53.356;-1.524;2023-02-27T05:15:55;22;17;
60245;PMS5003;46107;53.356;-1.524;2023-02-27T05:18:29;22;19;
60245;PMS5003;46107;53.356;-1.524;2023-02-27T05:20:59;22;18;
60245;PMS5003;46107;53.356;-1.524;2023-02-27T05:23:36;25;19;
60245;PMS5003;46107;53.356;-1.524;2023-02-27T05:26:12;18;17;
60245;PMS5003;46107;53.356;-1.524;2023-02-27T05:28:46;22;21;
60245;PMS5003;46107;53.356;-1.524;2023-02-27T05:31:20;22;19;
60245;PMS5003;46107;53.356;-1.524;2023-02-27T05:33:54;19;18;
60245;PMS5003;46107;53.356;-1.524;2023-02-27T05:36:27;18;16;
60245;PMS5003;46107;53.356;-1.524;2023-02-27T05:38:59;17;12;
60245;PMS5003;46107;53.356;-1.524;2023-02-27T05:41:31;15;12;
60245;PMS5003;46107;53.356;-1.524;2023-02-27T05:44:05;11;11;
60245;PMS5003;46107;53.356;-1.524;2023-02-27T05:46:39;9;9;
60245;PMS5003;46107;53.356;-1.524;2023-02-27T05:49:12;15;12;
60245;PMS5003;46107;53.356;-1.524;2023-02-27T05:51:45;17;14;
60245;PMS5003;46107;53.356;-1.524;2023-02-27T05:54:17;22;12;
60245;PMS5003;46107;53.356;-1.524;2023-02-27T05:56:50;11;9;
60245;PMS5003;46107;53.356;-1.524;2023-02-27T05:59:23;12;12;
60245;PMS5003;46107;53.356;-1.524;2023-02-27T06:01:56;13;10;
60245;PMS5003;46107;53.356;-1.524;2023-02-27T06:04:23;11;11;
60245;PMS5003;46107;53.356;-1.524;2023-02-27T06:06:51;10;10;
60245;PMS5003;46107;53.356;-1.524;2023-02-27T06:09:19;11;11;
60245;PMS5003;46107;53.356;-1.524;2023-02-27T06:11:47;11;9;
60245;PMS5003;46107;53.356;-1.524;2023-02-27T06:14:14;12;11;
60245;PMS5003;46107;53.356;-1.524;2023-02-27T06:16:42;14;12;
60245;PMS5003;46107;53.356;-1.524;2023-02-27T06:19:10;12;10;
60245;PMS5003;46107;53.356;-1.524;2023-02-27T06:21:37;14;12;
60245;PMS5003;46107;53.356;-1.524;2023-02-27T06:24:05;10;9;
60245;PMS5003;46107;53.356;-1.524;2023-02-27T06:26:32;13;11;
60245;PMS5003;46107;53.356;-1.524;2023-02-27T06:29:00;11;11;
60245;PMS5003;46107;53.356;-1.524;2023-02-27T06:31:27;12;10;
60245;PMS5003;46107;53.356;-1.524;2023-02-27T06:33:56;12;11;
60245;PMS5003;46107;53.356;-1.524;2023-02-27T06:36:23;13;10;
60245;PMS5003;46107;53.356;-1.524;2023-02-27T06:38:51;12;10;
60245;PMS5003;46107;53.356;-1.524;2023-02-27T06:41:18;9;9;
60245;PMS5003;46107;53.356;-1.524;2023-02-27T06:43:46;13;9;
60245;PMS5003;46107;53.356;-1.524;2023-02-27T06:46:14;9;9;
60245;PMS5003;46107;53.356;-1.524;2023-02-27T06:48:41;16;13;
60245;PMS5003;46107;53.356;-1.524;2023-02-27T06:51:09;14;11;
60245;PMS5003;46107;53.356;-1.524;2023-02-27T06:53:36;12;12;
60245;PMS5003;46107;53.356;-1.524;2023-02-27T06:56:05;10;8;
60245;PMS5003;46107;53.356;-1.524;2023-02-27T06:58:33;13;11;
60245;PMS5003;46107;53.356;-1.524;2023-02-27T07:01:01;9;8;
60245;PMS5003;46107;53.356;-1.524;2023-02-27T07:03:28;14;10;
60245;PMS5003;46107;53.356;-1.524;2023-02-27T07:05:56;9;8;
60245;PMS5003;46107;53.356;-1.524;2023-02-27T07:08:25;12;11;
60245;PMS5003;46107;53.356;-1.524;2023-02-27T07:10:53;12;9;
60245;PMS5003;46107;53.356;-1.524;2023-02-27T07:13:20;10;9;
60245;PMS5003;46107;53.356;-1.524;2023-02-27T07:15:49;8;8;
60245;PMS5003;46107;53.356;-1.524;2023-02-27T07:18:17;8;8;
60245;PMS5003;46107;53.356;-1.524;2023-02-27T07:20:48;11;11;
60245;PMS5003;46107;53.356;-1.524;2023-02-27T07:23:17;12;9;
60245;PMS5003;46107;53.356;-1.524;2023-02-27T07:25:45;9;8;
60245;PMS5003;46107;53.356;-1.524;2023-02-27T07:28:14;8;7;
60245;PMS5003;46107;53.356;-1.524;2023-02-27T07:30:42;11;7;
60245;PMS5003;46107;53.356;-1.524;2023-02-27T07:33:09;8;6;
60245;PMS5003;46107;53.356;-1.524;2023-02-27T07:35:37;9;8;
60245;PMS5003;46107;53.356;-1.524;2023-02-27T07:38:05;8;8;
60245;PMS5003;46107;53.356;-1.524;2023-02-27T07:40:32;6;5;
60245;PMS5003;46107;53.356;-1.524;2023-02-27T07:43:00;7;5;
60245;PMS5003;46107;53.356;-1.524;2023-02-27T07:45:27;5;5;
60245;PMS5003;46107;53.356;-1.524;2023-02-27T07:47:55;8;7;
60245;PMS5003;46107;53.356;-1.524;2023-02-27T07:50:23;5;5;
60245;PMS5003;46107;53.356;-1.524;2023-02-27T07:52:51;7;6;
60245;PMS5003;46107;53.356;-1.524;2023-02-27T07:55:19;11;10;
60245;PMS5003;46107;53.356;-1.524;2023-02-27T07:57:46;6;6;
60245;PMS5003;46107;53.356;-1.524;2023-02-27T08:00:14;8;6;
60245;PMS5003;46107;53.356;-1.524;2023-02-27T08:02:42;8;7;
60245;PMS5003;46107;53.356;-1.524;2023-02-27T08:05:10;6;6;
60245;PMS5003;46107;53.356;-1.524;2023-02-27T08:07:37;9;8;
60245;PMS5003;46107;53.356;-1.524;2023-02-27T08:10:05;8;6;
60245;PMS5003;46107;53.356;-1.524;2023-02-27T08:12:34;6;6;
60245;PMS5003;46107;53.356;-1.524;2023-02-27T08:15:01;5;5;
60245;PMS5003;46107;53.356;-1.524;2023-02-27T08:17:30;6;6;
60245;PMS5003;46107;53.356;-1.524;2023-02-27T08:20:03;7;4;
60245;PMS5003;46107;53.356;-1.524;2023-02-27T08:22:31;7;5;
60245;PMS5003;46107;53.356;-1.524;2023-02-27T08:24:59;7;4;
60245;PMS5003;46107;53.356;-1.524;2023-02-27T08:27:27;4;3;
60245;PMS5003;46107;53.356;-1.524;2023-02-27T08:27:29;4;3;
60245;PMS5003;46107;53.356;-1.524;2023-02-27T08:29:58;5;4;
60245;PMS5003;46107;53.356;-1.524;2023-02-27T08:32:26;5;3;
60245;PMS5003;46107;53.356;-1.524;2023-02-27T08:34:53;2;2;
60245;PMS5003;46107;53.356;-1.524;2023-02-27T08:37:21;4;4;
60245;PMS5003;46107;53.356;-1.524;2023-02-27T08:39:48;3;3;
60245;PMS5003;46107;53.356;-1.524;2023-02-27T08:42:16;4;4;
60245;PMS5003;46107;53.356;-1.524;2023-02-27T08:44:44;9;7;
60245;PMS5003;46107;53.356;-1.524;2023-02-27T08:47:11;4;4;
60245;PMS5003;46107;53.356;-1.524;2023-02-27T08:49:39;6;5;
60245;PMS5003;46107;53.356;-1.524;2023-02-27T08:52:06;5;5;
60245;PMS5003;46107;53.356;-1.524;2023-02-27T08:54:34;8;6;
60245;PMS5003;46107;53.356;-1.524;2023-02-27T08:57:02;7;7;
60245;PMS5003;46107;53.356;-1.524;2023-02-27T08:59:30;11;8;
60245;PMS5003;46107;53.356;-1.524;2023-02-27T09:02:02;8;8;
60245;PMS5003;46107;53.356;-1.524;2023-02-27T09:04:30;7;7;
60245;PMS5003;46107;53.356;-1.524;2023-02-27T09:06:59;9;6;
60245;PMS5003;46107;53.356;-1.524;2023-02-27T09:09:27;9;7;
60245;PMS5003;46107;53.356;-1.524;2023-02-27T09:11:54;10;8;
60245;PMS5003;46107;53.356;-1.524;2023-02-27T09:14:22;10;10;
60245;PMS5003;46107;53.356;-1.524;2023-02-27T09:16:49;11;11;
60245;PMS5003;46107;53.356;-1.524;2023-02-27T09:19:17;11;10;
60245;PMS5003;46107;53.356;-1.524;2023-02-27T09:21:44;12;11;
60245;PMS5003;46107;53.356;-1.524;2023-02-27T09:24:11;16;13;
60245;PMS5003;46107;53.356;-1.524;2023-02-27T09:26:39;16;12;
60245;PMS5003;46107;53.356;-1.524;2023-02-27T09:29:07;15;12;
60245;PMS5003;46107;53.356;-1.524;2023-02-27T09:31:35;13;13;
60245;PMS5003;46107;53.356;-1.524;2023-02-27T09:34:02;13;10;
60245;PMS5003;46107;53.356;-1.524;2023-02-27T09:36:30;11;9;
60245;PMS5003;46107;53.356;-1.524;2023-02-27T09:39:03;13;13;
60245;PMS5003;46107;53.356;-1.524;2023-02-27T09:41:35;14;13;
60245;PMS5003;46107;53.356;-1.524;2023-02-27T09:44:14;12;11;
60245;PMS5003;46107;53.356;-1.524;2023-02-27T09:46:51;13;11;
60245;PMS5003;46107;53.356;-1.524;2023-02-27T09:49:20;11;11;
60245;PMS5003;46107;53.356;-1.524;2023-02-27T09:51:51;10;10;
60245;PMS5003;46107;53.356;-1.524;2023-02-27T09:54:19;12;10;
60245;PMS5003;46107;53.356;-1.524;2023-02-27T09:56:48;13;12;
60245;PMS5003;46107;53.356;-1.524;2023-02-27T09:59:23;18;15;
60245;PMS5003;46107;53.356;-1.524;2023-02-27T10:02:01;16;14;
60245;PMS5003;46107;53.356;-1.524;2023-02-27T10:04:39;13;13;
60245;PMS5003;46107;53.356;-1.524;2023-02-27T10:07:16;16;16;
60245;PMS5003;46107;53.356;-1.524;2023-02-27T10:09:55;15;14;
60245;PMS5003;46107;53.356;-1.524;2023-02-27T10:12:33;23;16;
60245;PMS5003;46107;53.356;-1.524;2023-02-27T10:15:13;16;16;
60245;PMS5003;46107;53.356;-1.524;2023-02-27T10:17:47;15;13;
60245;PMS5003;46107;53.356;-1.524;2023-02-27T10:20:21;15;14;
60245;PMS5003;46107;53.356;-1.524;2023-02-27T10:22:53;10;10;
60245;PMS5003;46107;53.356;-1.524;2023-02-27T10:25:25;14;12;
60245;PMS5003;46107;53.356;-1.524;2023-02-27T10:27:55;12;11;
60245;PMS5003;46107;53.356;-1.524;2023-02-27T10:30:28;16;14;
60245;PMS5003;46107;53.356;-1.524;2023-02-27T10:32:56;16;14;
60245;PMS5003;46107;53.356;-1.524;2023-02-27T10:35:33;12;12;
60245;PMS5003;46107;53.356;-1.524;2023-02-27T10:38:03;15;14;
60245;PMS5003;46107;53.356;-1.524;2023-02-27T10:40:38;18;15;
60245;PMS5003;46107;53.356;-1.524;2023-02-27T10:43:07;14;13;
60245;PMS5003;46107;53.356;-1.524;2023-02-27T10:45:38;16;13;
60245;PMS5003;46107;53.356;-1.524;2023-02-27T10:48:06;11;11;
60245;PMS5003;46107;53.356;-1.524;2023-02-27T10:50:35;14;12;
60245;PMS5003;46107;53.356;-1.524;2023-02-27T10:53:05;13;12;
60245;PMS5003;46107;53.356;-1.524;2023-02-27T10:55:43;11;11;
60245;PMS5003;46107;53.356;-1.524;2023-02-27T10:58:17;11;11;
60245;PMS5003;46107;53.356;-1.524;2023-02-27T11:00:51;11;9;
60245;PMS5003;46107;53.356;-1.524;2023-02-27T11:03:21;15;15;
60245;PMS5003;46107;53.356;-1.524;2023-02-27T11:05:52;19;15;
60245;PMS5003;46107;53.356;-1.524;2023-02-27T11:08:25;18;13;
60245;PMS5003;46107;53.356;-1.524;2023-02-27T11:10:54;16;13;
60245;PMS5003;46107;53.356;-1.524;2023-02-27T11:13:25;11;10;
60245;PMS5003;46107;53.356;-1.524;2023-02-27T11:16:05;17;15;
60245;PMS5003;46107;53.356;-1.524;2023-02-27T11:18:35;16;14;
60245;PMS5003;46107;53.356;-1.524;2023-02-27T11:21:20;13;12;
60245;PMS5003;46107;53.356;-1.524;2023-02-27T11:23:53;15;12;
60245;PMS5003;46107;53.356;-1.524;2023-02-27T11:26:24;17;14;
60245;PMS5003;46107;53.356;-1.524;2023-02-27T11:29:15;12;11;
60245;PMS5003;46107;53.356;-1.524;2023-02-27T11:31:44;9;9;
60245;PMS5003;46107;53.356;-1.524;2023-02-27T11:34:18;12;12;
60245;PMS5003;46107;53.356;-1.524;2023-02-27T11:36:49;8;7;
60245;PMS5003;46107;53.356;-1.524;2023-02-27T11:39:21;7;7;
60245;PMS5003;46107;53.356;-1.524;2023-02-27T11:41:53;8;8;
60245;PMS5003;46107;53.356;-1.524;2023-02-27T11:44:23;5;4;
60245;PMS5003;46107;53.356;-1.524;2023-02-27T11:47:06;9;9;
60245;PMS5003;46107;53.356;-1.524;2023-02-27T11:49:38;8;8;
60245;PMS5003;46107;53.356;-1.524;2023-02-27T11:52:22;10;9;
60245;PMS5003;46107;53.356;-1.524;2023-02-27T11:55:03;6;6;
60245;PMS5003;46107;53.356;-1.524;2023-02-27T11:57:37;8;8;
60245;PMS5003;46107;53.356;-1.524;2023-02-27T12:00:14;5;5;
60245;PMS5003;46107;53.356;-1.524;2023-02-27T12:00:16;5;5;
60245;PMS5003;46107;53.356;-1.524;2023-02-27T12:02:47;7;6;
60245;PMS5003;46107;53.356;-1.524;2023-02-27T12:05:25;6;5;
60245;PMS5003;46107;53.356;-1.524;2023-02-27T12:07:56;5;5;
60245;PMS5003;46107;53.356;-1.524;2023-02-27T12:10:28;10;6;
60245;PMS5003;46107;53.356;-1.524;2023-02-27T12:13:02;8;6;
60245;PMS5003;46107;53.356;-1.524;2023-02-27T12:15:32;6;6;
60245;PMS5003;46107;53.356;-1.524;2023-02-27T12:18:12;10;8;
60245;PMS5003;46107;53.356;-1.524;2023-02-27T12:20:48;7;7;
60245;PMS5003;46107;53.356;-1.524;2023-02-27T12:23:22;9;9;
60245;PMS5003;46107;53.356;-1.524;2023-02-27T12:25:59;8;8;
60245;PMS5003;46107;53.356;-1.524;2023-02-27T12:28:35;7;7;
60245;PMS5003;46107;53.356;-1.524;2023-02-27T12:31:24;7;4;
60245;PMS5003;46107;53.356;-1.524;2023-02-27T12:34:03;5;5;
60245;PMS5003;46107;53.356;-1.524;2023-02-27T12:36:40;8;7;
60245;PMS5003;46107;53.356;-1.524;2023-02-27T12:39:10;7;7;
60245;PMS5003;46107;53.356;-1.524;2023-02-27T12:41:47;5;5;
60245;PMS5003;46107;53.356;-1.524;2023-02-27T12:45:28;6;5;
60245;PMS5003;46107;53.356;-1.524;2023-02-27T12:48:13;5;5;
60245;PMS5003;46107;53.356;-1.524;2023-02-27T12:50:52;6;6;
60245;PMS5003;46107;53.356;-1.524;2023-02-27T12:53:33;5;5;
60245;PMS5003;46107;53.356;-1.524;2023-02-27T12:56:14;7;5;
60245;PMS5003;46107;53.356;-1.524;2023-02-27T12:58:48;6;6;
60245;PMS5003;46107;53.356;-1.524;2023-02-27T13:01:24;9;8;
60245;PMS5003;46107;53.356;-1.524;2023-02-27T13:04:02;8;7;
60245;PMS5003;46107;53.356;-1.524;2023-02-27T13:06:41;7;4;
60245;PMS5003;46107;53.356;-1.524;2023-02-27T13:09:18;7;5;
60245;PMS5003;46107;53.356;-1.524;2023-02-27T13:11:56;7;6;
60245;PMS5003;46107;53.356;-1.524;2023-02-27T13:14:32;6;6;
60245;PMS5003;46107;53.356;-1.524;2023-02-27T13:17:11;10;10;
60245;PMS5003;46107;53.356;-1.524;2023-02-27T13:19:48;8;6;
60245;PMS5003;46107;53.356;-1.524;2023-02-27T13:22:21;11;8;
60245;PMS5003;46107;53.356;-1.524;2023-02-27T13:24:55;7;5;
60245;PMS5003;46107;53.356;-1.524;2023-02-27T13:27:30;6;6;
60245;PMS5003;46107;53.356;-1.524;2023-02-27T13:30:04;6;4;
60245;PMS5003;46107;53.356;-1.524;2023-02-27T13:32:40;2;2;
60245;PMS5003;46107;53.356;-1.524;2023-02-27T13:35:16;5;5;
60245;PMS5003;46107;53.356;-1.524;2023-02-27T13:37:50;6;5;
60245;PMS5003;46107;53.356;-1.524;2023-02-27T13:40:36;6;4;
60245;PMS5003;46107;53.356;-1.524;2023-02-27T13:43:26;4;4;
60245;PMS5003;46107;53.356;-1.524;2023-02-27T13:45:56;7;7;
60245;PMS5003;46107;53.356;-1.524;2023-02-27T13:48:42;9;7;
60245;PMS5003;46107;53.356;-1.524;2023-02-27T13:51:45;11;11;
60245;PMS5003;46107;53.356;-1.524;2023-02-27T13:54:17;6;6;
60245;PMS5003;46107;53.356;-1.524;2023-02-27T13:56:48;8;8;
60245;PMS5003;46107;53.356;-1.524;2023-02-27T13:59:31;10;9;
60245;PMS5003;46107;53.356;-1.524;2023-02-27T14:02:01;11;9;
60245;PMS5003;46107;53.356;-1.524;2023-02-27T14:04:32;12;12;
60245;PMS5003;46107;53.356;-1.524;2023-02-27T14:07:04;10;7;
60245;PMS5003;46107;53.356;-1.524;2023-02-27T14:09:35;10;7;
60245;PMS5003;46107;53.356;-1.524;2023-02-27T14:12:21;9;9;
60245;PMS5003;46107;53.356;-1.524;2023-02-27T14:14:54;10;9;
60245;PMS5003;46107;53.356;-1.524;2023-02-27T14:17:38;8;6;
60245;PMS5003;46107;53.356;-1.524;2023-02-27T14:20:10;5;5;
60245;PMS5003;46107;53.356;-1.524;2023-02-27T14:22:39;8;5;
60245;PMS5003;46107;53.356;-1.524;2023-02-27T14:25:35;6;6;
60245;PMS5003;46107;53.356;-1.524;2023-02-27T14:28:12;6;4;
60245;PMS5003;46107;53.356;-1.524;2023-02-27T14:30:50;4;3;
60245;PMS5003;46107;53.356;-1.524;2023-02-27T14:33:22;6;6;
60245;PMS5003;46107;53.356;-1.524;2023-02-27T14:35:55;2;2;
60245;PMS5003;46107;53.356;-1.524;2023-02-27T14:38:26;3;3;
60245;PMS5003;46107;53.356;-1.524;2023-02-27T14:40:57;6;4;
60245;PMS5003;46107;53.356;-1.524;2023-02-27T14:43:35;3;3;
60245;PMS5003;46107;53.356;-1.524;2023-02-27T14:46:06;2;2;
60245;PMS5003;46107;53.356;-1.524;2023-02-27T14:48:42;3;3;
60245;PMS5003;46107;53.356;-1.524;2023-02-27T14:51:10;2;2;
60245;PMS5003;46107;53.356;-1.524;2023-02-27T14:53:38;0;0;
60245;PMS5003;46107;53.356;-1.524;2023-02-27T14:56:14;4;2;
60245;PMS5003;46107;53.356;-1.524;2023-02-27T14:58:46;1;1;
60245;PMS5003;46107;53.356;-1.524;2023-02-27T15:01:15;5;3;
60245;PMS5003;46107;53.356;-1.524;2023-02-27T15:03:44;4;2;
60245;PMS5003;46107;53.356;-1.524;2023-02-27T15:06:16;5;4;
60245;PMS5003;46107;53.356;-1.524;2023-02-27T15:08:46;2;2;
60245;PMS5003;46107;53.356;-1.524;2023-02-27T15:11:17;5;4;
60245;PMS5003;46107;53.356;-1.524;2023-02-27T15:13:47;5;4;
60245;PMS5003;46107;53.356;-1.524;2023-02-27T15:16:26;3;3;
60245;PMS5003;46107;53.356;-1.524;2023-02-27T15:19:11;4;4;
60245;PMS5003;46107;53.356;-1.524;2023-02-27T15:21:43;8;7;
60245;PMS5003;46107;53.356;-1.524;2023-02-27T15:24:23;10;8;
60245;PMS5003;46107;53.356;-1.524;2023-02-27T15:26:54;7;5;
60245;PMS5003;46107;53.356;-1.524;2023-02-27T15:29:25;6;6;
60245;PMS5003;46107;53.356;-1.524;2023-02-27T15:32:04;6;6;
60245;PMS5003;46107;53.356;-1.524;2023-02-27T15:34:32;5;5;
60245;PMS5003;46107;53.356;-1.524;2023-02-27T15:37:01;8;5;
60245;PMS5003;46107;53.356;-1.524;2023-02-27T15:39:32;5;4;
60245;PMS5003;46107;53.356;-1.524;2023-02-27T15:42:02;4;4;
60245;PMS5003;46107;53.356;-1.524;2023-02-27T15:44:33;5;3;
60245;PMS5003;46107;53.356;-1.524;2023-02-27T15:47:06;10;6;
60245;PMS5003;46107;53.356;-1.524;2023-02-27T15:49:36;5;4;
60245;PMS5003;46107;53.356;-1.524;2023-02-27T15:52:11;9;5;
60245;PMS5003;46107;53.356;-1.524;2023-02-27T15:54:45;5;5;
60245;PMS5003;46107;53.356;-1.524;2023-02-27T15:57:16;5;5;
60245;PMS5003;46107;53.356;-1.524;2023-02-27T15:59:46;6;4;
60245;PMS5003;46107;53.356;-1.524;2023-02-27T16:02:15;6;5;
60245;PMS5003;46107;53.356;-1.524;2023-02-27T16:04:46;5;5;
60245;PMS5003;46107;53.356;-1.524;2023-02-27T16:07:16;6;6;
60245;PMS5003;46107;53.356;-1.524;2023-02-27T16:09:47;6;6;
60245;PMS5003;46107;53.356;-1.524;2023-02-27T16:12:22;6;6;
60245;PMS5003;46107;53.356;-1.524;2023-02-27T16:15:29;5;5;
60245;PMS5003;46107;53.356;-1.524;2023-02-27T16:17:59;10;7;
60245;PMS5003;46107;53.356;-1.524;2023-02-27T16:20:37;8;8;
60245;PMS5003;46107;53.356;-1.524;2023-02-27T16:23:14;8;7;
60245;PMS5003;46107;53.356;-1.524;2023-02-27T16:25:58;8;5;
60245;PMS5003;46107;53.356;-1.524;2023-02-27T16:28:29;5;5;
60245;PMS5003;46107;53.356;-1.524;2023-02-27T16:30:59;7;5;
60245;PMS5003;46107;53.356;-1.524;2023-02-27T16:33:26;9;7;
60245;PMS5003;46107;53.356;-1.524;2023-02-27T16:36:15;7;7;
60245;PMS5003;46107;53.356;-1.524;2023-02-27T16:38:44;8;7;
60245;PMS5003;46107;53.356;-1.524;2023-02-27T16:41:12;12;11;
60245;PMS5003;46107;53.356;-1.524;2023-02-27T16:43:42;6;6;
60245;PMS5003;46107;53.356;-1.524;2023-02-27T16:46:09;7;7;
60245;PMS5003;46107;53.356;-1.524;2023-02-27T16:48:37;6;6;
60245;PMS5003;46107;53.356;-1.524;2023-02-27T16:51:05;6;6;